<?xml version="1.0" encoding="UTF-8" standalone="no" ?>
<gpx xmlns="http://www.topografix.com/GPX/1/1" xmlns:xsi="http://www.w3.org/2001/XMLSchema-instance" xsi:schemaLocation="http://www.topografix.com/GPX/1/1 http://www.topografix.com/GPX/1/1/gpx.xsd" version="1.1" creator="VisuGPX - https://www.visugpx.com">
  <metadata>
    <name>Circuit forestier vers Pène Blanque</name>
    <desc><![CDATA[Bon circuit sans trop de pente après de fortes chutes de neige]]></desc>
  </metadata>
  <trk>
    <name><![CDATA[FEV-05-15 15:29:09]]></name>
    <trkseg>
      <trkpt lat="42.94351" lon="0.27816">
        <ele>1088.35</ele>
        <time>2015-02-05T08:55:04Z</time>
      </trkpt>
      <trkpt lat="42.94332" lon="0.27815">
        <ele>1085.47</ele>
        <time>2015-02-05T09:03:08Z</time>
      </trkpt>
      <trkpt lat="42.94309" lon="0.27848">
        <ele>1086.91</ele>
        <time>2015-02-05T09:06:50Z</time>
      </trkpt>
      <trkpt lat="42.94281" lon="0.27904">
        <ele>1089.31</ele>
        <time>2015-02-05T09:07:39Z</time>
      </trkpt>
      <trkpt lat="42.94255" lon="0.2796">
        <ele>1090.27</ele>
        <time>2015-02-05T09:08:23Z</time>
      </trkpt>
      <trkpt lat="42.94228" lon="0.28004">
        <ele>1092.2</ele>
        <time>2015-02-05T09:09:18Z</time>
      </trkpt>
      <trkpt lat="42.94218" lon="0.27944">
        <ele>1096.52</ele>
        <time>2015-02-05T09:10:24Z</time>
      </trkpt>
      <trkpt lat="42.94202" lon="0.27889">
        <ele>1099.89</ele>
        <time>2015-02-05T09:11:11Z</time>
      </trkpt>
      <trkpt lat="42.9416" lon="0.27864">
        <ele>1102.77</ele>
        <time>2015-02-05T09:11:57Z</time>
      </trkpt>
      <trkpt lat="42.94127" lon="0.27827">
        <ele>1102.77</ele>
        <time>2015-02-05T09:12:37Z</time>
      </trkpt>
      <trkpt lat="42.94109" lon="0.2777">
        <ele>1103.25</ele>
        <time>2015-02-05T09:13:20Z</time>
      </trkpt>
      <trkpt lat="42.94101" lon="0.27706">
        <ele>1104.21</ele>
        <time>2015-02-05T09:14:02Z</time>
      </trkpt>
      <trkpt lat="42.94097" lon="0.27642">
        <ele>1106.13</ele>
        <time>2015-02-05T09:14:41Z</time>
      </trkpt>
      <trkpt lat="42.94093" lon="0.27576">
        <ele>1107.58</ele>
        <time>2015-02-05T09:15:24Z</time>
      </trkpt>
      <trkpt lat="42.94075" lon="0.27515">
        <ele>1110.46</ele>
        <time>2015-02-05T09:16:08Z</time>
      </trkpt>
      <trkpt lat="42.94069" lon="0.27446">
        <ele>1113.82</ele>
        <time>2015-02-05T09:16:55Z</time>
      </trkpt>
      <trkpt lat="42.94078" lon="0.27383">
        <ele>1115.75</ele>
        <time>2015-02-05T09:17:38Z</time>
      </trkpt>
      <trkpt lat="42.94072" lon="0.27331">
        <ele>1120.55</ele>
        <time>2015-02-05T09:18:16Z</time>
      </trkpt>
      <trkpt lat="42.94035" lon="0.27299">
        <ele>1124.88</ele>
        <time>2015-02-05T09:19:01Z</time>
      </trkpt>
      <trkpt lat="42.93992" lon="0.27269">
        <ele>1131.61</ele>
        <time>2015-02-05T09:19:54Z</time>
      </trkpt>
      <trkpt lat="42.93947" lon="0.27257">
        <ele>1140.26</ele>
        <time>2015-02-05T09:20:47Z</time>
      </trkpt>
      <trkpt lat="42.93901" lon="0.27243">
        <ele>1146.51</ele>
        <time>2015-02-05T09:21:41Z</time>
      </trkpt>
      <trkpt lat="42.93854" lon="0.27226">
        <ele>1153.72</ele>
        <time>2015-02-05T09:22:33Z</time>
      </trkpt>
      <trkpt lat="42.93806" lon="0.27205">
        <ele>1157.56</ele>
        <time>2015-02-05T09:23:20Z</time>
      </trkpt>
      <trkpt lat="42.93834" lon="0.27222">
        <ele>1156.6</ele>
        <time>2015-02-05T09:24:14Z</time>
      </trkpt>
      <trkpt lat="42.93808" lon="0.27204">
        <ele>1159.97</ele>
        <time>2015-02-05T09:25:13Z</time>
      </trkpt>
      <trkpt lat="42.93771" lon="0.27163">
        <ele>1163.81</ele>
        <time>2015-02-05T09:26:16Z</time>
      </trkpt>
      <trkpt lat="42.93737" lon="0.27115">
        <ele>1164.77</ele>
        <time>2015-02-05T09:27:12Z</time>
      </trkpt>
      <trkpt lat="42.9371" lon="0.27066">
        <ele>1164.29</ele>
        <time>2015-02-05T09:28:01Z</time>
      </trkpt>
      <trkpt lat="42.93688" lon="0.27012">
        <ele>1164.77</ele>
        <time>2015-02-05T09:28:53Z</time>
      </trkpt>
      <trkpt lat="42.93685" lon="0.2695">
        <ele>1165.74</ele>
        <time>2015-02-05T09:29:47Z</time>
      </trkpt>
      <trkpt lat="42.93693" lon="0.26896">
        <ele>1166.22</ele>
        <time>2015-02-05T09:30:36Z</time>
      </trkpt>
      <trkpt lat="42.93709" lon="0.26838">
        <ele>1166.22</ele>
        <time>2015-02-05T09:31:29Z</time>
      </trkpt>
      <trkpt lat="42.93721" lon="0.26764">
        <ele>1170.06</ele>
        <time>2015-02-05T09:32:21Z</time>
      </trkpt>
      <trkpt lat="42.9374" lon="0.26701">
        <ele>1175.35</ele>
        <time>2015-02-05T09:33:16Z</time>
      </trkpt>
      <trkpt lat="42.93725" lon="0.26756">
        <ele>1170.06</ele>
        <time>2015-02-05T09:34:29Z</time>
      </trkpt>
      <trkpt lat="42.93713" lon="0.26808">
        <ele>1165.26</ele>
        <time>2015-02-05T09:38:31Z</time>
      </trkpt>
      <trkpt lat="42.9371" lon="0.26835">
        <ele>1163.81</ele>
        <time>2015-02-05T09:39:31Z</time>
      </trkpt>
      <trkpt lat="42.93734" lon="0.26793">
        <ele>1167.66</ele>
        <time>2015-02-05T09:41:00Z</time>
      </trkpt>
      <trkpt lat="42.93768" lon="0.26769">
        <ele>1175.35</ele>
        <time>2015-02-05T09:42:52Z</time>
      </trkpt>
      <trkpt lat="42.93789" lon="0.26731">
        <ele>1183.52</ele>
        <time>2015-02-05T09:44:55Z</time>
      </trkpt>
      <trkpt lat="42.93795" lon="0.26656">
        <ele>1185.44</ele>
        <time>2015-02-05T09:47:01Z</time>
      </trkpt>
      <trkpt lat="42.93822" lon="0.26651">
        <ele>1182.56</ele>
        <time>2015-02-05T09:48:55Z</time>
      </trkpt>
      <trkpt lat="42.93823" lon="0.26669">
        <ele>1178.23</ele>
        <time>2015-02-05T09:52:26Z</time>
      </trkpt>
      <trkpt lat="42.93804" lon="0.26619">
        <ele>1184.48</ele>
        <time>2015-02-05T09:53:21Z</time>
      </trkpt>
      <trkpt lat="42.93825" lon="0.26561">
        <ele>1185.44</ele>
        <time>2015-02-05T09:54:11Z</time>
      </trkpt>
      <trkpt lat="42.93838" lon="0.26498">
        <ele>1186.4</ele>
        <time>2015-02-05T09:54:58Z</time>
      </trkpt>
      <trkpt lat="42.93864" lon="0.26443">
        <ele>1184.96</ele>
        <time>2015-02-05T10:03:50Z</time>
      </trkpt>
      <trkpt lat="42.93891" lon="0.26432">
        <ele>1189.77</ele>
        <time>2015-02-05T10:05:30Z</time>
      </trkpt>
      <trkpt lat="42.93889" lon="0.26375">
        <ele>1195.06</ele>
        <time>2015-02-05T10:07:04Z</time>
      </trkpt>
      <trkpt lat="42.93906" lon="0.26315">
        <ele>1204.19</ele>
        <time>2015-02-05T10:08:42Z</time>
      </trkpt>
      <trkpt lat="42.93921" lon="0.2625">
        <ele>1208.51</ele>
        <time>2015-02-05T10:09:59Z</time>
      </trkpt>
      <trkpt lat="42.93938" lon="0.26187">
        <ele>1212.36</ele>
        <time>2015-02-05T10:11:09Z</time>
      </trkpt>
      <trkpt lat="42.93939" lon="0.26123">
        <ele>1215.24</ele>
        <time>2015-02-05T10:13:52Z</time>
      </trkpt>
      <trkpt lat="42.93936" lon="0.26082">
        <ele>1221.01</ele>
        <time>2015-02-05T10:15:17Z</time>
      </trkpt>
      <trkpt lat="42.9394" lon="0.26014">
        <ele>1221.01</ele>
        <time>2015-02-05T10:16:20Z</time>
      </trkpt>
      <trkpt lat="42.93924" lon="0.25977">
        <ele>1223.42</ele>
        <time>2015-02-05T10:18:49Z</time>
      </trkpt>
      <trkpt lat="42.9389" lon="0.26004">
        <ele>1231.11</ele>
        <time>2015-02-05T10:21:28Z</time>
      </trkpt>
      <trkpt lat="42.93858" lon="0.26048">
        <ele>1235.43</ele>
        <time>2015-02-05T10:23:26Z</time>
      </trkpt>
      <trkpt lat="42.9382" lon="0.2608">
        <ele>1239.28</ele>
        <time>2015-02-05T10:25:02Z</time>
      </trkpt>
      <trkpt lat="42.93775" lon="0.26077">
        <ele>1243.12</ele>
        <time>2015-02-05T10:26:23Z</time>
      </trkpt>
      <trkpt lat="42.93713" lon="0.26119">
        <ele>1270.04</ele>
        <time>2015-02-05T10:34:15Z</time>
      </trkpt>
      <trkpt lat="42.93682" lon="0.26145">
        <ele>1284.46</ele>
        <time>2015-02-05T10:37:57Z</time>
      </trkpt>
      <trkpt lat="42.93675" lon="0.26183">
        <ele>1291.67</ele>
        <time>2015-02-05T10:42:01Z</time>
      </trkpt>
      <trkpt lat="42.93657" lon="0.26204">
        <ele>1301.76</ele>
        <time>2015-02-05T10:46:43Z</time>
      </trkpt>
      <trkpt lat="42.93643" lon="0.26194">
        <ele>1310.41</ele>
        <time>2015-02-05T10:49:28Z</time>
      </trkpt>
      <trkpt lat="42.93607" lon="0.26229">
        <ele>1322.43</ele>
        <time>2015-02-05T10:53:17Z</time>
      </trkpt>
      <trkpt lat="42.93593" lon="0.26176">
        <ele>1333.01</ele>
        <time>2015-02-05T11:02:03Z</time>
      </trkpt>
      <trkpt lat="42.93579" lon="0.26119">
        <ele>1344.06</ele>
        <time>2015-02-05T11:03:46Z</time>
      </trkpt>
      <trkpt lat="42.93553" lon="0.26074">
        <ele>1355.12</ele>
        <time>2015-02-05T11:06:07Z</time>
      </trkpt>
      <trkpt lat="42.93515" lon="0.2607">
        <ele>1369.54</ele>
        <time>2015-02-05T11:09:10Z</time>
      </trkpt>
      <trkpt lat="42.93489" lon="0.26017">
        <ele>1377.71</ele>
        <time>2015-02-05T11:11:37Z</time>
      </trkpt>
      <trkpt lat="42.93459" lon="0.25966">
        <ele>1379.15</ele>
        <time>2015-02-05T11:12:58Z</time>
      </trkpt>
      <trkpt lat="42.93426" lon="0.25927">
        <ele>1378.19</ele>
        <time>2015-02-05T11:14:12Z</time>
      </trkpt>
      <trkpt lat="42.93388" lon="0.25889">
        <ele>1379.15</ele>
        <time>2015-02-05T11:15:42Z</time>
      </trkpt>
      <trkpt lat="42.93347" lon="0.25844">
        <ele>1379.15</ele>
        <time>2015-02-05T11:16:57Z</time>
      </trkpt>
      <trkpt lat="42.93336" lon="0.25812">
        <ele>1375.78</ele>
        <time>2015-02-05T11:18:05Z</time>
      </trkpt>
      <trkpt lat="42.93336" lon="0.25812">
        <ele>1378.67</ele>
        <time>2015-02-05T11:18:17Z</time>
      </trkpt>
      <trkpt lat="42.93333" lon="0.25808">
        <ele>1379.15</ele>
        <time>2015-02-05T11:18:22Z</time>
      </trkpt>
      <trkpt lat="42.93304" lon="0.2576">
        <ele>1368.57</ele>
        <time>2015-02-05T11:21:27Z</time>
      </trkpt>
      <trkpt lat="42.93253" lon="0.25743">
        <ele>1378.67</ele>
        <time>2015-02-05T11:23:03Z</time>
      </trkpt>
      <trkpt lat="42.93204" lon="0.25719">
        <ele>1383.96</ele>
        <time>2015-02-05T11:24:30Z</time>
      </trkpt>
      <trkpt lat="42.93155" lon="0.257">
        <ele>1387.8</ele>
        <time>2015-02-05T11:26:09Z</time>
      </trkpt>
      <trkpt lat="42.93118" lon="0.25683">
        <ele>1399.34</ele>
        <time>2015-02-05T11:28:03Z</time>
      </trkpt>
      <trkpt lat="42.93073" lon="0.25681">
        <ele>1409.43</ele>
        <time>2015-02-05T11:29:42Z</time>
      </trkpt>
      <trkpt lat="42.93027" lon="0.25687">
        <ele>1420</ele>
        <time>2015-02-05T11:31:37Z</time>
      </trkpt>
      <trkpt lat="42.92985" lon="0.25687">
        <ele>1435.39</ele>
        <time>2015-02-05T11:35:22Z</time>
      </trkpt>
      <trkpt lat="42.92951" lon="0.25663">
        <ele>1450.77</ele>
        <time>2015-02-05T11:37:59Z</time>
      </trkpt>
      <trkpt lat="42.92922" lon="0.2567">
        <ele>1463.26</ele>
        <time>2015-02-05T11:43:07Z</time>
      </trkpt>
      <trkpt lat="42.92906" lon="0.25641">
        <ele>1477.68</ele>
        <time>2015-02-05T11:45:25Z</time>
      </trkpt>
      <trkpt lat="42.92873" lon="0.25625">
        <ele>1514.69</ele>
        <time>2015-02-05T12:01:46Z</time>
      </trkpt>
      <trkpt lat="42.92832" lon="0.25595">
        <ele>1517.1</ele>
        <time>2015-02-05T12:09:34Z</time>
      </trkpt>
      <trkpt lat="42.92817" lon="0.25582">
        <ele>1519.5</ele>
        <time>2015-02-05T12:44:52Z</time>
      </trkpt>
      <trkpt lat="42.92805" lon="0.25593">
        <ele>1521.9</ele>
        <time>2015-02-05T12:48:33Z</time>
      </trkpt>
      <trkpt lat="42.92777" lon="0.25642">
        <ele>1497.87</ele>
        <time>2015-02-05T12:51:04Z</time>
      </trkpt>
      <trkpt lat="42.92779" lon="0.25705">
        <ele>1454.13</ele>
        <time>2015-02-05T12:55:44Z</time>
      </trkpt>
      <trkpt lat="42.9274" lon="0.25747">
        <ele>1458.46</ele>
        <time>2015-02-05T12:57:37Z</time>
      </trkpt>
      <trkpt lat="42.927" lon="0.25762">
        <ele>1461.82</ele>
        <time>2015-02-05T12:59:04Z</time>
      </trkpt>
      <trkpt lat="42.92686" lon="0.25818">
        <ele>1462.3</ele>
        <time>2015-02-05T13:00:39Z</time>
      </trkpt>
      <trkpt lat="42.92691" lon="0.25879">
        <ele>1461.34</ele>
        <time>2015-02-05T13:01:56Z</time>
      </trkpt>
      <trkpt lat="42.92685" lon="0.25938">
        <ele>1463.26</ele>
        <time>2015-02-05T13:03:23Z</time>
      </trkpt>
      <trkpt lat="42.92667" lon="0.25997">
        <ele>1461.34</ele>
        <time>2015-02-05T13:04:43Z</time>
      </trkpt>
      <trkpt lat="42.92641" lon="0.2606">
        <ele>1456.53</ele>
        <time>2015-02-05T13:06:27Z</time>
      </trkpt>
      <trkpt lat="42.92603" lon="0.26099">
        <ele>1448.84</ele>
        <time>2015-02-05T13:07:37Z</time>
      </trkpt>
      <trkpt lat="42.92596" lon="0.26163">
        <ele>1450.29</ele>
        <time>2015-02-05T13:09:02Z</time>
      </trkpt>
      <trkpt lat="42.92582" lon="0.26221">
        <ele>1448.36</ele>
        <time>2015-02-05T13:10:20Z</time>
      </trkpt>
      <trkpt lat="42.92607" lon="0.2626">
        <ele>1433.46</ele>
        <time>2015-02-05T13:12:28Z</time>
      </trkpt>
      <trkpt lat="42.92644" lon="0.26297">
        <ele>1417.12</ele>
        <time>2015-02-05T13:13:40Z</time>
      </trkpt>
      <trkpt lat="42.92709" lon="0.26305">
        <ele>1387.8</ele>
        <time>2015-02-05T13:15:26Z</time>
      </trkpt>
      <trkpt lat="42.92756" lon="0.26329">
        <ele>1376.26</ele>
        <time>2015-02-05T13:16:31Z</time>
      </trkpt>
      <trkpt lat="42.92805" lon="0.26348">
        <ele>1364.73</ele>
        <time>2015-02-05T13:17:51Z</time>
      </trkpt>
      <trkpt lat="42.92853" lon="0.26364">
        <ele>1361.36</ele>
        <time>2015-02-05T13:22:15Z</time>
      </trkpt>
      <trkpt lat="42.92901" lon="0.2635">
        <ele>1364.73</ele>
        <time>2015-02-05T13:24:32Z</time>
      </trkpt>
      <trkpt lat="42.9296" lon="0.26322">
        <ele>1351.27</ele>
        <time>2015-02-05T13:30:03Z</time>
      </trkpt>
      <trkpt lat="42.93028" lon="0.26294">
        <ele>1319.07</ele>
        <time>2015-02-05T13:32:19Z</time>
      </trkpt>
      <trkpt lat="42.9309" lon="0.26319">
        <ele>1277.25</ele>
        <time>2015-02-05T13:35:32Z</time>
      </trkpt>
      <trkpt lat="42.93096" lon="0.26376">
        <ele>1271.96</ele>
        <time>2015-02-05T13:37:00Z</time>
      </trkpt>
      <trkpt lat="42.93105" lon="0.26436">
        <ele>1262.35</ele>
        <time>2015-02-05T13:38:07Z</time>
      </trkpt>
      <trkpt lat="42.93113" lon="0.26501">
        <ele>1252.25</ele>
        <time>2015-02-05T13:39:21Z</time>
      </trkpt>
      <trkpt lat="42.93104" lon="0.2657">
        <ele>1246.01</ele>
        <time>2015-02-05T13:40:35Z</time>
      </trkpt>
      <trkpt lat="42.93075" lon="0.26615">
        <ele>1232.07</ele>
        <time>2015-02-05T13:41:35Z</time>
      </trkpt>
      <trkpt lat="42.93088" lon="0.26668">
        <ele>1196.02</ele>
        <time>2015-02-05T13:43:18Z</time>
      </trkpt>
      <trkpt lat="42.93142" lon="0.26664">
        <ele>1189.29</ele>
        <time>2015-02-05T13:44:13Z</time>
      </trkpt>
      <trkpt lat="42.93186" lon="0.2665">
        <ele>1184</ele>
        <time>2015-02-05T13:45:17Z</time>
      </trkpt>
      <trkpt lat="42.93226" lon="0.26634">
        <ele>1178.71</ele>
        <time>2015-02-05T13:46:26Z</time>
      </trkpt>
      <trkpt lat="42.93255" lon="0.2668">
        <ele>1177.27</ele>
        <time>2015-02-05T13:48:17Z</time>
      </trkpt>
      <trkpt lat="42.93287" lon="0.26725">
        <ele>1177.75</ele>
        <time>2015-02-05T13:49:00Z</time>
      </trkpt>
      <trkpt lat="42.93301" lon="0.26792">
        <ele>1178.71</ele>
        <time>2015-02-05T13:49:44Z</time>
      </trkpt>
      <trkpt lat="42.93314" lon="0.26839">
        <ele>1180.16</ele>
        <time>2015-02-05T13:57:17Z</time>
      </trkpt>
      <trkpt lat="42.93357" lon="0.26866">
        <ele>1179.67</ele>
        <time>2015-02-05T13:58:04Z</time>
      </trkpt>
      <trkpt lat="42.93384" lon="0.26916">
        <ele>1180.64</ele>
        <time>2015-02-05T13:58:48Z</time>
      </trkpt>
      <trkpt lat="42.93372" lon="0.26973">
        <ele>1179.19</ele>
        <time>2015-02-05T13:59:32Z</time>
      </trkpt>
      <trkpt lat="42.93403" lon="0.27019">
        <ele>1178.23</ele>
        <time>2015-02-05T14:00:11Z</time>
      </trkpt>
      <trkpt lat="42.93449" lon="0.2706">
        <ele>1174.87</ele>
        <time>2015-02-05T14:00:57Z</time>
      </trkpt>
      <trkpt lat="42.9352" lon="0.2707">
        <ele>1172.95</ele>
        <time>2015-02-05T14:01:53Z</time>
      </trkpt>
      <trkpt lat="42.93578" lon="0.27104">
        <ele>1170.54</ele>
        <time>2015-02-05T14:02:44Z</time>
      </trkpt>
      <trkpt lat="42.93628" lon="0.27136">
        <ele>1169.1</ele>
        <time>2015-02-05T14:03:39Z</time>
      </trkpt>
      <trkpt lat="42.9368" lon="0.27167">
        <ele>1165.26</ele>
        <time>2015-02-05T14:04:21Z</time>
      </trkpt>
      <trkpt lat="42.93733" lon="0.2719">
        <ele>1159.01</ele>
        <time>2015-02-05T14:05:06Z</time>
      </trkpt>
      <trkpt lat="42.93789" lon="0.27196">
        <ele>1152.76</ele>
        <time>2015-02-05T14:06:22Z</time>
      </trkpt>
      <trkpt lat="42.93839" lon="0.2722">
        <ele>1149.87</ele>
        <time>2015-02-05T14:07:06Z</time>
      </trkpt>
      <trkpt lat="42.9389" lon="0.27236">
        <ele>1144.59</ele>
        <time>2015-02-05T14:07:49Z</time>
      </trkpt>
      <trkpt lat="42.9394" lon="0.27253">
        <ele>1136.42</ele>
        <time>2015-02-05T14:08:30Z</time>
      </trkpt>
      <trkpt lat="42.93992" lon="0.27268">
        <ele>1126.8</ele>
        <time>2015-02-05T14:09:19Z</time>
      </trkpt>
      <trkpt lat="42.94033" lon="0.273">
        <ele>1120.07</ele>
        <time>2015-02-05T14:09:58Z</time>
      </trkpt>
      <trkpt lat="42.94075" lon="0.27335">
        <ele>1113.34</ele>
        <time>2015-02-05T14:10:35Z</time>
      </trkpt>
      <trkpt lat="42.94079" lon="0.274">
        <ele>1110.46</ele>
        <time>2015-02-05T14:11:12Z</time>
      </trkpt>
      <trkpt lat="42.94074" lon="0.27464">
        <ele>1108.06</ele>
        <time>2015-02-05T14:11:50Z</time>
      </trkpt>
      <trkpt lat="42.94083" lon="0.27524">
        <ele>1104.21</ele>
        <time>2015-02-05T14:12:28Z</time>
      </trkpt>
      <trkpt lat="42.94096" lon="0.27581">
        <ele>1101.81</ele>
        <time>2015-02-05T14:13:06Z</time>
      </trkpt>
      <trkpt lat="42.94099" lon="0.27644">
        <ele>1100.37</ele>
        <time>2015-02-05T14:13:43Z</time>
      </trkpt>
      <trkpt lat="42.94101" lon="0.27707">
        <ele>1097.96</ele>
        <time>2015-02-05T14:14:19Z</time>
      </trkpt>
      <trkpt lat="42.9411" lon="0.27766">
        <ele>1096.52</ele>
        <time>2015-02-05T14:14:54Z</time>
      </trkpt>
      <trkpt lat="42.94126" lon="0.27823">
        <ele>1096.04</ele>
        <time>2015-02-05T14:15:31Z</time>
      </trkpt>
      <trkpt lat="42.9416" lon="0.27863">
        <ele>1095.56</ele>
        <time>2015-02-05T14:16:08Z</time>
      </trkpt>
      <trkpt lat="42.94201" lon="0.27887">
        <ele>1092.68</ele>
        <time>2015-02-05T14:16:45Z</time>
      </trkpt>
      <trkpt lat="42.94218" lon="0.27939">
        <ele>1088.35</ele>
        <time>2015-02-05T14:17:26Z</time>
      </trkpt>
      <trkpt lat="42.94232" lon="0.27994">
        <ele>1084.02</ele>
        <time>2015-02-05T14:18:03Z</time>
      </trkpt>
      <trkpt lat="42.94264" lon="0.27945">
        <ele>1081.62</ele>
        <time>2015-02-05T14:19:09Z</time>
      </trkpt>
      <trkpt lat="42.94288" lon="0.27891">
        <ele>1080.66</ele>
        <time>2015-02-05T14:20:11Z</time>
      </trkpt>
      <trkpt lat="42.94319" lon="0.27835">
        <ele>1078.74</ele>
        <time>2015-02-05T14:20:57Z</time>
      </trkpt>
      <trkpt lat="42.94359" lon="0.27808">
        <ele>1076.81</ele>
        <time>2015-02-05T14:21:49Z</time>
      </trkpt>
    </trkseg>
  </trk>
</gpx>